sensor_id;sensor_type;location;lat;lon;timestamp;temperature;humidity
29453;DHT22;16424;50.956;5.320;2024-03-23T00:53:07;8.70;99.90
29453;DHT22;16424;50.956;5.320;2024-03-23T00:55:33;8.70;99.90
29453;DHT22;16424;50.956;5.320;2024-03-23T00:57:58;8.70;99.90
29453;DHT22;16424;50.956;5.320;2024-03-23T01:00:24;8.80;99.90
29453;DHT22;16424;50.956;5.320;2024-03-23T01:02:50;8.80;99.90
29453;DHT22;16424;50.956;5.320;2024-03-23T01:05:15;8.90;99.90
29453;DHT22;16424;50.956;5.320;2024-03-23T01:07:41;8.80;99.90
29453;DHT22;16424;50.956;5.320;2024-03-23T01:10:07;8.90;99.90
29453;DHT22;16424;50.956;5.320;2024-03-23T01:12:32;9.00;99.90
29453;DHT22;16424;50.956;5.320;2024-03-23T01:14:58;9.10;99.90
29453;DHT22;16424;50.956;5.320;2024-03-23T01:17:23;9.20;99.90
29453;DHT22;16424;50.956;5.320;2024-03-23T01:19:49;9.20;99.90
29453;DHT22;16424;50.956;5.320;2024-03-23T01:22:15;9.20;99.90
29453;DHT22;16424;50.956;5.320;2024-03-23T01:24:40;9.20;99.90
29453;DHT22;16424;50.956;5.320;2024-03-23T01:27:06;9.30;99.90
29453;DHT22;16424;50.956;5.320;2024-03-23T01:29:31;9.30;99.90
29453;DHT22;16424;50.956;5.320;2024-03-23T01:31:57;9.30;99.90
29453;DHT22;16424;50.956;5.320;2024-03-23T01:34:23;9.30;99.90
29453;DHT22;16424;50.956;5.320;2024-03-23T01:36:50;9.30;99.90
29453;DHT22;16424;50.956;5.320;2024-03-23T01:39:16;9.30;99.90
29453;DHT22;16424;50.956;5.320;2024-03-23T01:41:42;9.20;99.90
29453;DHT22;16424;50.956;5.320;2024-03-23T01:44:09;9.00;99.90
29453;DHT22;16424;50.956;5.320;2024-03-23T01:46:38;8.90;99.90
29453;DHT22;16424;50.956;5.320;2024-03-23T01:49:06;8.60;99.90
29453;DHT22;16424;50.956;5.320;2024-03-23T01:51:33;8.70;99.90
29453;DHT22;16424;50.956;5.320;2024-03-23T01:54:01;8.80;99.90
29453;DHT22;16424;50.956;5.320;2024-03-23T01:56:32;8.80;99.90
29453;DHT22;16424;50.956;5.320;2024-03-23T01:59:05;8.70;99.90
29453;DHT22;16424;50.956;5.320;2024-03-23T02:01:36;8.70;99.90
29453;DHT22;16424;50.956;5.320;2024-03-23T02:04:02;8.60;99.90
29453;DHT22;16424;50.956;5.320;2024-03-23T02:06:28;8.60;99.90
29453;DHT22;16424;50.956;5.320;2024-03-23T02:08:57;8.60;99.90
29453;DHT22;16424;50.956;5.320;2024-03-23T02:11:23;8.60;99.90
29453;DHT22;16424;50.956;5.320;2024-03-23T02:13:49;8.50;99.90
29453;DHT22;16424;50.956;5.320;2024-03-23T02:16:14;8.50;99.90
29453;DHT22;16424;50.956;5.320;2024-03-23T02:18:40;8.40;99.90
29453;DHT22;16424;50.956;5.320;2024-03-23T02:21:06;8.30;99.90
29453;DHT22;16424;50.956;5.320;2024-03-23T02:23:31;8.20;99.90
29453;DHT22;16424;50.956;5.320;2024-03-23T02:25:57;8.20;99.90
29453;DHT22;16424;50.956;5.320;2024-03-23T02:28:22;8.10;99.90
29453;DHT22;16424;50.956;5.320;2024-03-23T02:30:52;8.20;99.90
29453;DHT22;16424;50.956;5.320;2024-03-23T02:33:18;8.30;99.90
29453;DHT22;16424;50.956;5.320;2024-03-23T02:35:44;8.10;99.90
29453;DHT22;16424;50.956;5.320;2024-03-23T02:38:10;8.20;99.90
29453;DHT22;16424;50.956;5.320;2024-03-23T02:40:36;8.30;99.90
29453;DHT22;16424;50.956;5.320;2024-03-23T02:43:04;8.30;99.90
29453;DHT22;16424;50.956;5.320;2024-03-23T02:45:30;8.30;99.90
29453;DHT22;16424;50.956;5.320;2024-03-23T02:47:56;8.40;99.90
29453;DHT22;16424;50.956;5.320;2024-03-23T02:50:22;8.20;99.90
29453;DHT22;16424;50.956;5.320;2024-03-23T02:52:48;8.20;99.90
29453;DHT22;16424;50.956;5.320;2024-03-23T02:55:14;8.30;99.90
29453;DHT22;16424;50.956;5.320;2024-03-23T02:57:40;8.40;99.90
29453;DHT22;16424;50.956;5.320;2024-03-23T03:00:06;8.50;99.90
29453;DHT22;16424;50.956;5.320;2024-03-23T03:02:33;8.60;99.90
29453;DHT22;16424;50.956;5.320;2024-03-23T03:04:58;8.60;99.90
29453;DHT22;16424;50.956;5.320;2024-03-23T03:07:24;8.40;99.90
29453;DHT22;16424;50.956;5.320;2024-03-23T03:09:50;8.10;99.90
29453;DHT22;16424;50.956;5.320;2024-03-23T03:12:15;8.00;99.90
29453;DHT22;16424;50.956;5.320;2024-03-23T03:14:41;7.70;99.90
29453;DHT22;16424;50.956;5.320;2024-03-23T03:17:06;7.80;99.90
29453;DHT22;16424;50.956;5.320;2024-03-23T03:19:32;7.90;99.90
29453;DHT22;16424;50.956;5.320;2024-03-23T03:21:58;7.90;99.90
29453;DHT22;16424;50.956;5.320;2024-03-23T03:24:24;7.90;99.90
29453;DHT22;16424;50.956;5.320;2024-03-23T03:26:49;8.00;99.90
29453;DHT22;16424;50.956;5.320;2024-03-23T03:29:15;8.00;99.90
29453;DHT22;16424;50.956;5.320;2024-03-23T03:31:42;8.10;99.90
29453;DHT22;16424;50.956;5.320;2024-03-23T03:34:08;8.00;99.90
29453;DHT22;16424;50.956;5.320;2024-03-23T03:36:33;8.10;99.90
29453;DHT22;16424;50.956;5.320;2024-03-23T03:38:59;8.20;99.90
29453;DHT22;16424;50.956;5.320;2024-03-23T03:41:25;8.40;99.90
29453;DHT22;16424;50.956;5.320;2024-03-23T03:43:50;8.40;99.90
29453;DHT22;16424;50.956;5.320;2024-03-23T03:46:16;8.30;99.90
29453;DHT22;16424;50.956;5.320;2024-03-23T03:48:42;8.10;99.90
29453;DHT22;16424;50.956;5.320;2024-03-23T03:51:10;8.30;99.90
29453;DHT22;16424;50.956;5.320;2024-03-23T03:53:36;8.40;99.90
29453;DHT22;16424;50.956;5.320;2024-03-23T03:56:02;8.40;99.90
29453;DHT22;16424;50.956;5.320;2024-03-23T03:58:27;8.30;99.90
29453;DHT22;16424;50.956;5.320;2024-03-23T04:00:53;8.40;99.90
29453;DHT22;16424;50.956;5.320;2024-03-23T04:03:19;8.40;99.90
29453;DHT22;16424;50.956;5.320;2024-03-23T04:05:54;8.50;99.90
29453;DHT22;16424;50.956;5.320;2024-03-23T04:08:21;8.50;99.90
29453;DHT22;16424;50.956;5.320;2024-03-23T04:10:46;8.50;99.90
29453;DHT22;16424;50.956;5.320;2024-03-23T04:13:13;8.50;99.90
29453;DHT22;16424;50.956;5.320;2024-03-23T04:15:38;8.40;99.90
29453;DHT22;16424;50.956;5.320;2024-03-23T04:18:05;8.30;99.90
29453;DHT22;16424;50.956;5.320;2024-03-23T04:20:30;8.40;99.90
29453;DHT22;16424;50.956;5.320;2024-03-23T04:22:58;8.40;99.90
29453;DHT22;16424;50.956;5.320;2024-03-23T04:25:23;8.40;99.90
29453;DHT22;16424;50.956;5.320;2024-03-23T04:27:49;8.40;99.90
29453;DHT22;16424;50.956;5.320;2024-03-23T04:30:15;8.40;99.90
29453;DHT22;16424;50.956;5.320;2024-03-23T04:32:41;8.20;99.90
29453;DHT22;16424;50.956;5.320;2024-03-23T04:35:07;8.20;99.90
29453;DHT22;16424;50.956;5.320;2024-03-23T04:37:36;8.10;99.90
29453;DHT22;16424;50.956;5.320;2024-03-23T04:40:03;8.00;99.90
29453;DHT22;16424;50.956;5.320;2024-03-23T04:42:29;8.00;99.90
29453;DHT22;16424;50.956;5.320;2024-03-23T04:44:54;8.00;99.90
29453;DHT22;16424;50.956;5.320;2024-03-23T04:47:20;7.90;99.90
29453;DHT22;16424;50.956;5.320;2024-03-23T04:49:46;7.90;99.90
29453;DHT22;16424;50.956;5.320;2024-03-23T04:52:12;7.90;99.90
29453;DHT22;16424;50.956;5.320;2024-03-23T04:54:38;7.90;99.90
29453;DHT22;16424;50.956;5.320;2024-03-23T04:57:05;7.70;99.90
29453;DHT22;16424;50.956;5.320;2024-03-23T04:59:31;7.80;99.90
29453;DHT22;16424;50.956;5.320;2024-03-23T05:01:57;7.90;99.90
29453;DHT22;16424;50.956;5.320;2024-03-23T05:04:23;7.90;99.90
29453;DHT22;16424;50.956;5.320;2024-03-23T05:06:48;7.90;99.90
29453;DHT22;16424;50.956;5.320;2024-03-23T05:09:14;7.90;99.90
29453;DHT22;16424;50.956;5.320;2024-03-23T05:11:40;7.90;99.90
29453;DHT22;16424;50.956;5.320;2024-03-23T05:14:07;7.90;99.90
29453;DHT22;16424;50.956;5.320;2024-03-23T05:16:33;7.90;99.90
29453;DHT22;16424;50.956;5.320;2024-03-23T05:18:58;7.90;99.90
29453;DHT22;16424;50.956;5.320;2024-03-23T05:21:24;7.90;99.90
29453;DHT22;16424;50.956;5.320;2024-03-23T05:23:50;7.90;99.90
29453;DHT22;16424;50.956;5.320;2024-03-23T05:26:16;7.90;99.90
29453;DHT22;16424;50.956;5.320;2024-03-23T05:28:42;7.90;99.90
29453;DHT22;16424;50.956;5.320;2024-03-23T05:31:08;7.80;99.90
29453;DHT22;16424;50.956;5.320;2024-03-23T05:33:36;7.60;99.90
29453;DHT22;16424;50.956;5.320;2024-03-23T05:36:03;7.60;99.90
29453;DHT22;16424;50.956;5.320;2024-03-23T05:38:29;7.60;99.90
29453;DHT22;16424;50.956;5.320;2024-03-23T05:40:56;7.70;99.90
29453;DHT22;16424;50.956;5.320;2024-03-23T05:43:22;7.70;99.90
29453;DHT22;16424;50.956;5.320;2024-03-23T05:45:55;7.70;99.90
29453;DHT22;16424;50.956;5.320;2024-03-23T05:48:21;7.70;99.90
29453;DHT22;16424;50.956;5.320;2024-03-23T05:50:48;7.50;99.90
29453;DHT22;16424;50.956;5.320;2024-03-23T05:53:15;7.50;99.90
29453;DHT22;16424;50.956;5.320;2024-03-23T05:55:41;7.50;99.90
29453;DHT22;16424;50.956;5.320;2024-03-23T05:58:06;7.50;99.90
29453;DHT22;16424;50.956;5.320;2024-03-23T06:00:32;7.60;99.90
29453;DHT22;16424;50.956;5.320;2024-03-23T06:02:58;7.50;99.90
29453;DHT22;16424;50.956;5.320;2024-03-23T06:05:23;7.60;99.90
29453;DHT22;16424;50.956;5.320;2024-03-23T06:07:49;7.70;99.90
29453;DHT22;16424;50.956;5.320;2024-03-23T06:10:15;7.70;99.90
29453;DHT22;16424;50.956;5.320;2024-03-23T06:12:41;7.70;99.90
29453;DHT22;16424;50.956;5.320;2024-03-23T06:15:07;7.70;99.90
29453;DHT22;16424;50.956;5.320;2024-03-23T06:17:36;7.70;99.90
29453;DHT22;16424;50.956;5.320;2024-03-23T06:20:02;7.80;99.90
29453;DHT22;16424;50.956;5.320;2024-03-23T06:22:28;8.00;99.90
29453;DHT22;16424;50.956;5.320;2024-03-23T06:24:54;8.20;99.90
29453;DHT22;16424;50.956;5.320;2024-03-23T06:27:19;8.30;99.90
29453;DHT22;16424;50.956;5.320;2024-03-23T06:29:45;8.40;99.90
29453;DHT22;16424;50.956;5.320;2024-03-23T06:32:11;8.40;99.90
29453;DHT22;16424;50.956;5.320;2024-03-23T06:34:36;8.50;99.90
29453;DHT22;16424;50.956;5.320;2024-03-23T06:37:02;8.50;99.90
29453;DHT22;16424;50.956;5.320;2024-03-23T06:39:28;8.70;99.90
29453;DHT22;16424;50.956;5.320;2024-03-23T06:41:54;9.30;99.90
29453;DHT22;16424;50.956;5.320;2024-03-23T06:44:20;9.90;99.90
29453;DHT22;16424;50.956;5.320;2024-03-23T06:46:47;10.60;99.90
29453;DHT22;16424;50.956;5.320;2024-03-23T06:49:14;11.10;99.90
29453;DHT22;16424;50.956;5.320;2024-03-23T06:51:40;11.90;99.90
29453;DHT22;16424;50.956;5.320;2024-03-23T06:54:06;12.70;99.90
29453;DHT22;16424;50.956;5.320;2024-03-23T06:56:32;13.20;99.90
29453;DHT22;16424;50.956;5.320;2024-03-23T06:58:58;13.60;99.90
29453;DHT22;16424;50.956;5.320;2024-03-23T07:01:24;13.10;99.90
29453;DHT22;16424;50.956;5.320;2024-03-23T07:03:50;12.60;99.90
29453;DHT22;16424;50.956;5.320;2024-03-23T07:06:15;12.20;99.90
29453;DHT22;16424;50.956;5.320;2024-03-23T07:08:41;11.70;99.90
29453;DHT22;16424;50.956;5.320;2024-03-23T07:11:07;11.30;99.90
29453;DHT22;16424;50.956;5.320;2024-03-23T07:13:32;10.70;99.90
29453;DHT22;16424;50.956;5.320;2024-03-23T07:15:58;10.60;99.90
29453;DHT22;16424;50.956;5.320;2024-03-23T07:18:25;11.10;99.90
29453;DHT22;16424;50.956;5.320;2024-03-23T07:20:55;11.50;99.90
29453;DHT22;16424;50.956;5.320;2024-03-23T07:23:22;12.20;99.90
29453;DHT22;16424;50.956;5.320;2024-03-23T07:28:23;12.80;99.90
29453;DHT22;16424;50.956;5.320;2024-03-23T07:30:58;12.30;99.90
29453;DHT22;16424;50.956;5.320;2024-03-23T07:33:24;12.00;99.90
29453;DHT22;16424;50.956;5.320;2024-03-23T07:35:49;11.30;99.90
29453;DHT22;16424;50.956;5.320;2024-03-23T07:38:15;10.70;99.90
29453;DHT22;16424;50.956;5.320;2024-03-23T07:40:41;10.30;99.90
29453;DHT22;16424;50.956;5.320;2024-03-23T07:43:06;10.30;99.90
29453;DHT22;16424;50.956;5.320;2024-03-23T07:45:32;10.10;99.90
29453;DHT22;16424;50.956;5.320;2024-03-23T07:47:57;9.90;99.90
29453;DHT22;16424;50.956;5.320;2024-03-23T07:50:23;9.40;99.90
29453;DHT22;16424;50.956;5.320;2024-03-23T07:52:48;9.30;99.90
29453;DHT22;16424;50.956;5.320;2024-03-23T07:55:14;9.00;99.90
29453;DHT22;16424;50.956;5.320;2024-03-23T07:57:40;9.30;99.90
29453;DHT22;16424;50.956;5.320;2024-03-23T08:00:06;9.40;99.90
29453;DHT22;16424;50.956;5.320;2024-03-23T08:02:33;9.50;99.90
29453;DHT22;16424;50.956;5.320;2024-03-23T08:04:58;9.40;99.90
29453;DHT22;16424;50.956;5.320;2024-03-23T08:07:24;9.50;99.90
29453;DHT22;16424;50.956;5.320;2024-03-23T08:09:50;10.00;99.90
29453;DHT22;16424;50.956;5.320;2024-03-23T08:12:16;10.60;99.90
29453;DHT22;16424;50.956;5.320;2024-03-23T08:14:42;10.80;99.90
29453;DHT22;16424;50.956;5.320;2024-03-23T08:17:08;10.60;99.90
29453;DHT22;16424;50.956;5.320;2024-03-23T08:19:33;10.30;99.90
29453;DHT22;16424;50.956;5.320;2024-03-23T08:21:59;9.80;99.90
29453;DHT22;16424;50.956;5.320;2024-03-23T08:24:24;10.00;99.90
29453;DHT22;16424;50.956;5.320;2024-03-23T08:26:50;10.20;99.90
29453;DHT22;16424;50.956;5.320;2024-03-23T08:29:16;11.30;99.90
29453;DHT22;16424;50.956;5.320;2024-03-23T08:31:41;11.40;99.90
29453;DHT22;16424;50.956;5.320;2024-03-23T08:34:07;11.60;99.90
29453;DHT22;16424;50.956;5.320;2024-03-23T08:36:33;11.90;99.90
29453;DHT22;16424;50.956;5.320;2024-03-23T08:38:58;11.90;99.90
29453;DHT22;16424;50.956;5.320;2024-03-23T08:41:24;11.70;99.90
29453;DHT22;16424;50.956;5.320;2024-03-23T08:43:51;11.50;99.90
29453;DHT22;16424;50.956;5.320;2024-03-23T08:46:17;11.80;99.90
29453;DHT22;16424;50.956;5.320;2024-03-23T08:48:44;12.90;99.90
29453;DHT22;16424;50.956;5.320;2024-03-23T08:51:12;13.10;99.90
29453;DHT22;16424;50.956;5.320;2024-03-23T08:53:39;12.80;99.90
29453;DHT22;16424;50.956;5.320;2024-03-23T08:56:06;11.90;99.90
29453;DHT22;16424;50.956;5.320;2024-03-23T08:58:32;11.30;99.90
29453;DHT22;16424;50.956;5.320;2024-03-23T09:01:12;11.50;99.90
29453;DHT22;16424;50.956;5.320;2024-03-23T09:03:41;11.60;99.90
29453;DHT22;16424;50.956;5.320;2024-03-23T09:06:10;11.20;99.90
29453;DHT22;16424;50.956;5.320;2024-03-23T09:08:37;11.30;99.90
29453;DHT22;16424;50.956;5.320;2024-03-23T09:11:11;11.50;99.90
29453;DHT22;16424;50.956;5.320;2024-03-23T09:13:38;11.60;99.90
29453;DHT22;16424;50.956;5.320;2024-03-23T09:16:05;11.40;99.90
29453;DHT22;16424;50.956;5.320;2024-03-23T09:18:35;10.80;99.90
29453;DHT22;16424;50.956;5.320;2024-03-23T09:21:04;11.00;99.90
29453;DHT22;16424;50.956;5.320;2024-03-23T09:23:30;11.30;99.90
29453;DHT22;16424;50.956;5.320;2024-03-23T09:25:56;11.00;99.90
29453;DHT22;16424;50.956;5.320;2024-03-23T09:28:22;11.00;99.90
29453;DHT22;16424;50.956;5.320;2024-03-23T09:30:47;10.80;99.90
29453;DHT22;16424;50.956;5.320;2024-03-23T09:33:13;10.30;99.90
29453;DHT22;16424;50.956;5.320;2024-03-23T09:35:43;10.10;99.90
29453;DHT22;16424;50.956;5.320;2024-03-23T09:38:10;9.80;99.90
29453;DHT22;16424;50.956;5.320;2024-03-23T09:40:40;9.50;99.90
29453;DHT22;16424;50.956;5.320;2024-03-23T09:43:07;9.60;99.90
29453;DHT22;16424;50.956;5.320;2024-03-23T09:45:38;9.80;99.90
29453;DHT22;16424;50.956;5.320;2024-03-23T09:48:04;10.00;99.90
29453;DHT22;16424;50.956;5.320;2024-03-23T09:50:31;9.70;99.90
29453;DHT22;16424;50.956;5.320;2024-03-23T09:52:56;9.40;99.90
29453;DHT22;16424;50.956;5.320;2024-03-23T09:55:22;9.30;99.90
29453;DHT22;16424;50.956;5.320;2024-03-23T09:57:49;9.00;99.90
29453;DHT22;16424;50.956;5.320;2024-03-23T10:00:16;8.80;99.90
29453;DHT22;16424;50.956;5.320;2024-03-23T10:02:42;8.50;99.90
29453;DHT22;16424;50.956;5.320;2024-03-23T10:05:20;8.30;99.90
29453;DHT22;16424;50.956;5.320;2024-03-23T10:07:47;8.10;99.90
29453;DHT22;16424;50.956;5.320;2024-03-23T10:10:13;8.10;99.90
29453;DHT22;16424;50.956;5.320;2024-03-23T10:12:45;8.20;99.90
29453;DHT22;16424;50.956;5.320;2024-03-23T10:15:18;8.30;99.90
29453;DHT22;16424;50.956;5.320;2024-03-23T10:17:44;8.70;99.90
29453;DHT22;16424;50.956;5.320;2024-03-23T10:20:11;9.20;99.90
29453;DHT22;16424;50.956;5.320;2024-03-23T10:22:40;9.50;99.90
29453;DHT22;16424;50.956;5.320;2024-03-23T10:25:09;9.70;99.90
29453;DHT22;16424;50.956;5.320;2024-03-23T10:27:35;9.90;99.90
29453;DHT22;16424;50.956;5.320;2024-03-23T10:30:14;10.20;99.90
29453;DHT22;16424;50.956;5.320;2024-03-23T10:32:40;10.30;99.90
29453;DHT22;16424;50.956;5.320;2024-03-23T10:35:16;10.30;99.90
29453;DHT22;16424;50.956;5.320;2024-03-23T10:37:44;10.20;99.90
29453;DHT22;16424;50.956;5.320;2024-03-23T10:40:12;10.30;99.90
29453;DHT22;16424;50.956;5.320;2024-03-23T10:42:39;10.60;99.90
29453;DHT22;16424;50.956;5.320;2024-03-23T10:45:06;10.80;99.90
29453;DHT22;16424;50.956;5.320;2024-03-23T10:47:33;10.30;99.90
29453;DHT22;16424;50.956;5.320;2024-03-23T10:49:59;10.10;99.90
29453;DHT22;16424;50.956;5.320;2024-03-23T10:52:25;9.50;99.90
29453;DHT22;16424;50.956;5.320;2024-03-23T10:54:51;8.60;99.90
29453;DHT22;16424;50.956;5.320;2024-03-23T10:57:41;7.60;99.90
29453;DHT22;16424;50.956;5.320;2024-03-23T11:00:08;6.70;99.90
29453;DHT22;16424;50.956;5.320;2024-03-23T11:02:36;6.50;99.90
29453;DHT22;16424;50.956;5.320;2024-03-23T11:05:01;6.50;99.90
29453;DHT22;16424;50.956;5.320;2024-03-23T11:09:53;7.00;99.90
29453;DHT22;16424;50.956;5.320;2024-03-23T11:15:05;7.60;99.90
29453;DHT22;16424;50.956;5.320;2024-03-23T11:17:31;7.80;99.90
29453;DHT22;16424;50.956;5.320;2024-03-23T11:20:04;8.00;99.90
29453;DHT22;16424;50.956;5.320;2024-03-23T11:22:38;8.00;99.90
29453;DHT22;16424;50.956;5.320;2024-03-23T11:27:43;8.00;99.90
29453;DHT22;16424;50.956;5.320;2024-03-23T11:30:16;8.30;99.90
29453;DHT22;16424;50.956;5.320;2024-03-23T11:32:46;8.70;99.90
29453;DHT22;16424;50.956;5.320;2024-03-23T11:38:05;9.50;99.90
29453;DHT22;16424;50.956;5.320;2024-03-23T11:40:32;9.40;99.90
29453;DHT22;16424;50.956;5.320;2024-03-23T11:43:03;9.40;99.90
29453;DHT22;16424;50.956;5.320;2024-03-23T11:45:34;9.50;99.90
29453;DHT22;16424;50.956;5.320;2024-03-23T11:50:29;9.60;99.90
29453;DHT22;16424;50.956;5.320;2024-03-23T11:55:48;9.40;99.90
29453;DHT22;16424;50.956;5.320;2024-03-23T11:58:16;9.00;99.90
29453;DHT22;16424;50.956;5.320;2024-03-23T12:00:42;8.70;99.90
29453;DHT22;16424;50.956;5.320;2024-03-23T12:03:08;8.40;99.90
29453;DHT22;16424;50.956;5.320;2024-03-23T12:05:35;8.10;99.90
29453;DHT22;16424;50.956;5.320;2024-03-23T12:08:21;7.60;99.90
29453;DHT22;16424;50.956;5.320;2024-03-23T12:10:51;7.30;99.90
29453;DHT22;16424;50.956;5.320;2024-03-23T12:13:21;7.20;99.90
29453;DHT22;16424;50.956;5.320;2024-03-23T12:15:50;7.20;99.90
29453;DHT22;16424;50.956;5.320;2024-03-23T12:18:17;7.30;99.90
29453;DHT22;16424;50.956;5.320;2024-03-23T12:20:42;7.50;99.90
29453;DHT22;16424;50.956;5.320;2024-03-23T12:23:12;7.90;99.90
29453;DHT22;16424;50.956;5.320;2024-03-23T12:25:39;8.30;99.90
29453;DHT22;16424;50.956;5.320;2024-03-23T12:28:05;8.70;99.90
29453;DHT22;16424;50.956;5.320;2024-03-23T12:30:41;9.10;99.90
29453;DHT22;16424;50.956;5.320;2024-03-23T12:33:07;9.20;99.90
29453;DHT22;16424;50.956;5.320;2024-03-23T12:35:32;9.40;99.90
29453;DHT22;16424;50.956;5.320;2024-03-23T12:37:58;9.40;99.90
29453;DHT22;16424;50.956;5.320;2024-03-23T12:40:24;9.50;99.90
29453;DHT22;16424;50.956;5.320;2024-03-23T12:42:49;9.80;99.90
29453;DHT22;16424;50.956;5.320;2024-03-23T12:45:15;10.20;99.90
29453;DHT22;16424;50.956;5.320;2024-03-23T12:47:41;10.50;99.90
29453;DHT22;16424;50.956;5.320;2024-03-23T12:50:07;10.60;99.90
29453;DHT22;16424;50.956;5.320;2024-03-23T12:52:33;10.30;99.90
29453;DHT22;16424;50.956;5.320;2024-03-23T12:54:59;10.00;99.90
29453;DHT22;16424;50.956;5.320;2024-03-23T12:57:28;10.10;99.90
29453;DHT22;16424;50.956;5.320;2024-03-23T12:59:54;9.90;99.90
29453;DHT22;16424;50.956;5.320;2024-03-23T13:02:20;9.80;99.90
29453;DHT22;16424;50.956;5.320;2024-03-23T13:04:53;9.40;99.90
29453;DHT22;16424;50.956;5.320;2024-03-23T13:07:19;9.10;99.90
29453;DHT22;16424;50.956;5.320;2024-03-23T13:09:45;8.90;99.90
29453;DHT22;16424;50.956;5.320;2024-03-23T13:12:11;8.90;99.90
29453;DHT22;16424;50.956;5.320;2024-03-23T13:14:40;9.00;99.90
29453;DHT22;16424;50.956;5.320;2024-03-23T13:17:06;9.20;99.90
29453;DHT22;16424;50.956;5.320;2024-03-23T13:19:32;9.20;99.90
29453;DHT22;16424;50.956;5.320;2024-03-23T13:21:58;9.40;99.90
29453;DHT22;16424;50.956;5.320;2024-03-23T13:24:26;9.60;99.90
29453;DHT22;16424;50.956;5.320;2024-03-23T13:26:52;9.50;99.90
29453;DHT22;16424;50.956;5.320;2024-03-23T13:29:22;9.30;99.90
29453;DHT22;16424;50.956;5.320;2024-03-23T13:31:48;9.10;99.90
29453;DHT22;16424;50.956;5.320;2024-03-23T13:34:15;9.00;99.90
29453;DHT22;16424;50.956;5.320;2024-03-23T13:36:45;9.00;99.90
29453;DHT22;16424;50.956;5.320;2024-03-23T13:39:11;9.50;99.90
29453;DHT22;16424;50.956;5.320;2024-03-23T13:41:41;10.00;99.90
29453;DHT22;16424;50.956;5.320;2024-03-23T13:44:07;10.50;99.90
29453;DHT22;16424;50.956;5.320;2024-03-23T13:46:33;10.40;99.90
29453;DHT22;16424;50.956;5.320;2024-03-23T13:48:59;10.40;99.90
29453;DHT22;16424;50.956;5.320;2024-03-23T13:51:26;10.30;99.90
29453;DHT22;16424;50.956;5.320;2024-03-23T13:53:56;10.30;99.90
29453;DHT22;16424;50.956;5.320;2024-03-23T13:56:22;10.20;99.90
29453;DHT22;16424;50.956;5.320;2024-03-23T13:58:48;10.20;99.90
29453;DHT22;16424;50.956;5.320;2024-03-23T14:01:15;10.40;99.90
29453;DHT22;16424;50.956;5.320;2024-03-23T14:03:41;10.30;99.90
29453;DHT22;16424;50.956;5.320;2024-03-23T14:06:08;10.20;99.90
29453;DHT22;16424;50.956;5.320;2024-03-23T14:08:38;10.10;99.90
29453;DHT22;16424;50.956;5.320;2024-03-23T14:11:07;10.10;99.90
29453;DHT22;16424;50.956;5.320;2024-03-23T14:13:34;10.10;99.90
29453;DHT22;16424;50.956;5.320;2024-03-23T14:16:01;9.80;99.90
29453;DHT22;16424;50.956;5.320;2024-03-23T14:18:27;9.30;99.90
29453;DHT22;16424;50.956;5.320;2024-03-23T14:20:57;8.70;99.90
29453;DHT22;16424;50.956;5.320;2024-03-23T14:23:27;8.40;99.90
29453;DHT22;16424;50.956;5.320;2024-03-23T14:25:58;8.30;99.90
29453;DHT22;16424;50.956;5.320;2024-03-23T14:28:24;8.30;99.90
29453;DHT22;16424;50.956;5.320;2024-03-23T14:30:50;8.40;99.90
29453;DHT22;16424;50.956;5.320;2024-03-23T14:33:17;8.50;99.90
29453;DHT22;16424;50.956;5.320;2024-03-23T14:35:43;8.80;99.90
29453;DHT22;16424;50.956;5.320;2024-03-23T14:38:10;9.20;99.90
29453;DHT22;16424;50.956;5.320;2024-03-23T14:40:35;9.70;99.90
29453;DHT22;16424;50.956;5.320;2024-03-23T14:43:02;10.20;99.90
29453;DHT22;16424;50.956;5.320;2024-03-23T14:45:28;10.00;99.90
29453;DHT22;16424;50.956;5.320;2024-03-23T14:47:53;9.50;99.90
29453;DHT22;16424;50.956;5.320;2024-03-23T14:50:19;9.30;99.90
29453;DHT22;16424;50.956;5.320;2024-03-23T14:52:47;9.20;99.90
29453;DHT22;16424;50.956;5.320;2024-03-23T14:55:12;9.20;99.90
29453;DHT22;16424;50.956;5.320;2024-03-23T14:57:38;9.20;99.90
29453;DHT22;16424;50.956;5.320;2024-03-23T15:00:07;9.30;99.90
29453;DHT22;16424;50.956;5.320;2024-03-23T15:02:33;9.40;99.90
29453;DHT22;16424;50.956;5.320;2024-03-23T15:05:00;9.60;99.90
29453;DHT22;16424;50.956;5.320;2024-03-23T15:07:26;9.80;99.90
29453;DHT22;16424;50.956;5.320;2024-03-23T15:09:53;9.90;99.90
29453;DHT22;16424;50.956;5.320;2024-03-23T15:12:19;10.00;99.90
29453;DHT22;16424;50.956;5.320;2024-03-23T15:14:48;10.00;99.90
29453;DHT22;16424;50.956;5.320;2024-03-23T15:17:13;10.00;99.90
29453;DHT22;16424;50.956;5.320;2024-03-23T15:19:39;10.30;99.90
29453;DHT22;16424;50.956;5.320;2024-03-23T15:22:05;10.80;99.90
29453;DHT22;16424;50.956;5.320;2024-03-23T15:24:31;11.20;99.90
29453;DHT22;16424;50.956;5.320;2024-03-23T15:26:57;11.60;99.90
29453;DHT22;16424;50.956;5.320;2024-03-23T15:29:22;11.70;99.90
29453;DHT22;16424;50.956;5.320;2024-03-23T15:31:48;11.70;99.90
29453;DHT22;16424;50.956;5.320;2024-03-23T15:34:18;11.80;99.90
29453;DHT22;16424;50.956;5.320;2024-03-23T15:36:44;11.30;99.90
29453;DHT22;16424;50.956;5.320;2024-03-23T15:39:10;11.00;99.90
29453;DHT22;16424;50.956;5.320;2024-03-23T15:41:38;10.70;99.90
29453;DHT22;16424;50.956;5.320;2024-03-23T15:44:04;10.30;99.90
29453;DHT22;16424;50.956;5.320;2024-03-23T15:46:30;10.40;99.90
29453;DHT22;16424;50.956;5.320;2024-03-23T15:48:55;10.50;99.90
29453;DHT22;16424;50.956;5.320;2024-03-23T15:51:21;10.40;99.90
29453;DHT22;16424;50.956;5.320;2024-03-23T15:53:47;10.20;99.90
29453;DHT22;16424;50.956;5.320;2024-03-23T15:56:13;10.20;99.90
29453;DHT22;16424;50.956;5.320;2024-03-23T15:58:39;10.20;99.90
29453;DHT22;16424;50.956;5.320;2024-03-23T16:01:07;10.30;99.90
29453;DHT22;16424;50.956;5.320;2024-03-23T16:03:38;10.40;99.90
29453;DHT22;16424;50.956;5.320;2024-03-23T16:06:06;10.60;99.90
29453;DHT22;16424;50.956;5.320;2024-03-23T16:08:34;10.30;99.90
29453;DHT22;16424;50.956;5.320;2024-03-23T16:11:01;10.40;99.90
29453;DHT22;16424;50.956;5.320;2024-03-23T16:13:27;10.20;99.90
29453;DHT22;16424;50.956;5.320;2024-03-23T16:15:57;10.10;99.90
29453;DHT22;16424;50.956;5.320;2024-03-23T16:18:23;10.00;99.90
29453;DHT22;16424;50.956;5.320;2024-03-23T16:20:59;9.80;99.90
29453;DHT22;16424;50.956;5.320;2024-03-23T16:23:28;9.90;99.90
29453;DHT22;16424;50.956;5.320;2024-03-23T16:25:55;10.00;99.90
29453;DHT22;16424;50.956;5.320;2024-03-23T16:31:04;9.90;99.90
29453;DHT22;16424;50.956;5.320;2024-03-23T16:33:31;9.90;99.90
29453;DHT22;16424;50.956;5.320;2024-03-23T16:36:08;9.30;99.90
29453;DHT22;16424;50.956;5.320;2024-03-23T16:38:41;8.80;99.90
29453;DHT22;16424;50.956;5.320;2024-03-23T16:41:11;8.30;99.90
29453;DHT22;16424;50.956;5.320;2024-03-23T16:43:43;8.40;99.90
29453;DHT22;16424;50.956;5.320;2024-03-23T16:46:13;8.60;99.90
29453;DHT22;16424;50.956;5.320;2024-03-23T16:48:41;8.90;99.90
29453;DHT22;16424;50.956;5.320;2024-03-23T16:51:07;9.20;99.90
29453;DHT22;16424;50.956;5.320;2024-03-23T16:53:33;9.50;99.90